createdAt,value
2022-10-22T00:03:57.802Z,10.60
2022-10-22T00:09:00.706Z,11.61
2022-10-22T00:14:03.686Z,14.83
2022-10-22T00:19:06.488Z,13.93
2022-10-22T00:24:09.192Z,12.26
2022-10-22T00:29:11.805Z,11.38
2022-10-22T00:34:14.482Z,10.75
2022-10-22T00:39:19.434Z,11.75
2022-10-22T00:44:59.560Z,15.10
2022-10-22T00:50:05.184Z,13.58
2022-10-22T00:55:08.683Z,11.97
2022-10-22T01:00:12.393Z,11.06
2022-10-22T01:05:15.412Z,10.44
2022-10-22T01:10:21.389Z,11.48
2022-10-22T01:15:38.413Z,15.00
2022-10-22T01:20:56.595Z,14.18
2022-10-22T01:26:30.408Z,12.23
2022-10-22T01:31:39.885Z,11.06
2022-10-22T01:36:43.993Z,10.34
2022-10-22T01:41:47.080Z,11.52
2022-10-22T01:46:54.832Z,14.86
2022-10-22T01:52:26.941Z,14.90
2022-10-22T01:57:42.536Z,12.61
2022-10-22T02:03:02.260Z,11.41
2022-10-22T02:08:10.903Z,10.72
2022-10-22T02:13:18.438Z,11.89
2022-10-22T02:18:26.102Z,15.31
2022-10-22T02:23:28.978Z,14.90
2022-10-22T02:28:48.191Z,12.66
2022-10-22T02:33:55.925Z,11.37
2022-10-22T02:38:59.285Z,12.19
2022-10-22T02:44:03.239Z,15.19
2022-10-22T02:49:05.939Z,14.54
2022-10-22T02:54:08.522Z,12.48
2022-10-22T02:59:11.437Z,11.31
2022-10-22T03:04:14.060Z,12.03
2022-10-22T03:09:20.049Z,15.04
2022-10-22T03:14:25.475Z,15.10
2022-10-22T03:19:28.099Z,12.96
2022-10-22T03:24:44.695Z,11.64
2022-10-22T03:29:49.626Z,12.45
2022-10-22T03:34:52.373Z,15.39
2022-10-22T03:39:55.854Z,14.56
2022-10-22T03:44:58.451Z,12.55
2022-10-22T03:50:01.057Z,11.39
2022-10-22T03:55:04.964Z,12.06
2022-10-22T04:00:09.030Z,14.91
2022-10-22T04:05:11.744Z,15.12
2022-10-22T04:10:14.512Z,13.02
2022-10-22T04:15:17.545Z,11.73
2022-10-22T04:20:20.219Z,12.34
2022-10-22T04:25:22.817Z,15.30
2022-10-22T04:30:25.461Z,15.50
2022-10-22T04:35:28.494Z,13.32
2022-10-22T04:40:31.319Z,12.11
2022-10-22T04:45:35.014Z,12.83
2022-10-22T04:50:37.742Z,15.81
2022-10-22T04:55:40.350Z,14.87
2022-10-22T05:00:43.050Z,12.91
2022-10-22T05:05:45.838Z,11.78
2022-10-22T05:10:48.428Z,12.54
2022-10-22T05:15:51.016Z,15.42
2022-10-22T05:20:53.618Z,15.57
2022-10-22T05:25:56.603Z,13.55
2022-10-22T05:31:00.542Z,12.33
2022-10-22T05:36:05.700Z,12.82
2022-10-22T05:41:12.739Z,15.60
2022-10-22T05:46:22.165Z,15.50
2022-10-22T05:51:28.087Z,13.41
2022-10-22T05:56:32.204Z,12.25
2022-10-22T06:01:35.704Z,12.87
2022-10-22T06:06:42.879Z,15.68
2022-10-22T06:11:46.552Z,15.71
2022-10-22T06:16:50.534Z,13.68
2022-10-22T06:21:53.556Z,12.46
2022-10-22T06:26:56.553Z,13.11
2022-10-22T06:31:59.151Z,15.88
2022-10-22T06:37:01.859Z,16.02
2022-10-22T06:42:04.659Z,14.01
2022-10-22T06:47:07.295Z,14.22
2022-10-22T06:52:09.946Z,16.66
2022-10-22T06:57:12.745Z,15.38
2022-10-22T07:02:15.556Z,13.71
2022-10-22T07:07:18.323Z,12.76
2022-10-22T07:12:20.941Z,13.48
2022-10-22T07:17:23.538Z,16.30
2022-10-22T07:22:26.838Z,16.54
2022-10-22T07:27:29.566Z,14.58
2022-10-22T07:32:32.183Z,13.36
2022-10-22T07:37:34.859Z,13.98
2022-10-22T07:42:37.662Z,16.77
2022-10-22T07:47:40.534Z,16.73
2022-10-22T07:52:44.552Z,14.75
2022-10-22T07:57:47.294Z,13.62
2022-10-22T08:02:49.990Z,14.41
2022-10-22T08:07:52.633Z,17.09
2022-10-22T08:12:55.377Z,17.17
2022-10-22T08:17:58.071Z,15.09
2022-10-22T08:23:00.917Z,13.77
2022-10-22T08:28:03.740Z,14.44
2022-10-22T08:33:06.419Z,16.96
2022-10-22T08:38:09.407Z,17.98
2022-10-22T08:43:24.044Z,16.74
2022-10-22T08:48:45.819Z,14.62
2022-10-22T08:53:53.736Z,14.88
2022-10-22T08:59:04.365Z,17.22
2022-10-22T09:04:17.986Z,16.94
2022-10-22T09:09:21.552Z,14.89
2022-10-22T09:14:25.565Z,15.02
2022-10-22T09:19:40.308Z,17.48
2022-10-22T09:24:48.776Z,17.56
2022-10-22T09:29:51.414Z,15.48
2022-10-22T09:34:58.344Z,15.51
2022-10-22T09:40:05.510Z,17.75
2022-10-22T09:45:18.149Z,17.55
2022-10-22T09:50:44.332Z,15.46
2022-10-22T09:55:53.110Z,15.90
2022-10-22T10:00:58.529Z,18.31
2022-10-22T10:06:05.854Z,17.98
2022-10-22T10:11:13.448Z,15.90
2022-10-22T10:16:26.393Z,15.97
2022-10-22T10:22:02.546Z,18.26
2022-10-22T10:27:28.311Z,18.00
2022-10-22T10:32:37.226Z,15.80
2022-10-22T10:37:47.202Z,15.99
2022-10-22T10:42:58.095Z,18.26
2022-10-22T10:48:10.133Z,18.28
2022-10-22T10:53:27.887Z,16.11
2022-10-22T10:58:36.450Z,14.77
2022-10-22T11:03:44.883Z,15.40
2022-10-22T11:08:56.404Z,18.02
2022-10-22T11:14:11.640Z,19.15
2022-10-22T11:19:51.003Z,18.45
2022-10-22T11:25:03.204Z,16.07
2022-10-22T11:30:13.490Z,16.46
2022-10-22T11:35:25.684Z,18.94
2022-10-22T11:40:28.725Z,18.45
2022-10-22T11:45:38.405Z,16.29
2022-10-22T11:50:50.928Z,16.38
2022-10-22T11:55:56.269Z,18.72
2022-10-22T12:01:02.165Z,18.58
2022-10-22T12:06:15.803Z,16.38
2022-10-22T12:11:36.352Z,16.41
2022-10-22T12:16:55.818Z,18.71
2022-10-22T12:22:13.069Z,18.05
2022-10-22T12:27:23.575Z,17.34
2022-10-22T12:32:35.291Z,18.98
2022-10-22T12:37:38.686Z,18.70
2022-10-22T12:42:48.428Z,16.47
2022-10-22T12:47:55.913Z,16.46
2022-10-22T12:52:59.042Z,18.57
2022-10-22T12:58:06.468Z,19.50
2022-10-22T13:03:46.039Z,19.09
2022-10-22T13:09:06.582Z,16.56
2022-10-22T13:14:21.629Z,16.73
2022-10-22T13:19:41.756Z,18.79
2022-10-22T13:24:51.363Z,19.51
2022-10-22T13:29:56.138Z,17.59
2022-10-22T13:35:01.440Z,18.32
2022-10-22T13:40:12.181Z,19.04
2022-10-22T13:45:15.190Z,17.09
2022-10-22T13:50:19.776Z,18.10
2022-10-22T13:55:25.833Z,19.25
2022-10-22T14:00:28.602Z,18.80
2022-10-22T14:05:32.668Z,17.91
2022-10-22T14:10:35.666Z,19.33
2022-10-22T14:15:39.055Z,18.41
2022-10-22T14:20:42.479Z,17.72
2022-10-22T14:25:45.443Z,19.65
2022-10-22T14:30:48.406Z,19.50
2022-10-22T14:35:51.711Z,17.23
2022-10-22T14:40:54.894Z,17.73
2022-10-22T14:45:57.912Z,19.40
2022-10-22T14:51:00.532Z,19.40
2022-10-22T14:56:03.439Z,17.22
2022-10-22T15:01:06.589Z,17.84
2022-10-22T15:06:09.344Z,19.33
2022-10-22T15:11:12.817Z,19.72
2022-10-22T15:16:16.674Z,17.68
2022-10-22T15:21:23.302Z,18.25
2022-10-22T15:26:25.804Z,19.62
2022-10-22T15:31:47.123Z,19.94
2022-10-22T15:36:50.361Z,18.23
2022-10-22T15:41:54.544Z,17.68
2022-10-22T15:46:58.407Z,19.38
2022-10-22T15:52:01.486Z,18.94
2022-10-22T15:57:08.625Z,18.04
2022-10-22T16:02:11.800Z,19.80
2022-10-22T16:07:14.462Z,20.47
2022-10-22T16:12:17.415Z,18.95
2022-10-22T16:17:20.305Z,18.20
2022-10-22T16:22:22.954Z,20.05
2022-10-22T16:27:25.702Z,19.75
2022-10-22T16:32:28.406Z,17.58
2022-10-22T16:37:31.612Z,17.56
2022-10-22T16:42:34.311Z,19.76
2022-10-22T16:47:37.521Z,20.56
2022-10-22T16:52:40.221Z,19.52
2022-10-22T16:57:43.154Z,17.35
2022-10-22T17:02:52.073Z,17.47
2022-10-22T17:07:54.767Z,19.75
2022-10-22T17:12:57.421Z,20.40
2022-10-22T17:18:00.883Z,18.62
2022-10-22T17:23:03.526Z,18.08
2022-10-22T17:28:06.154Z,20.18
2022-10-22T17:33:09.316Z,20.11
2022-10-22T17:38:13.098Z,17.85
2022-10-22T17:43:15.809Z,17.94
2022-10-22T17:48:18.432Z,20.07
2022-10-22T17:53:21.051Z,20.92
2022-10-22T17:58:23.727Z,19.48
2022-10-22T18:03:27.983Z,17.51
2022-10-22T18:08:30.780Z,17.86
2022-10-22T18:13:33.428Z,20.18
2022-10-22T18:18:36.551Z,21.02
2022-10-22T18:23:39.193Z,19.92
2022-10-22T18:28:41.843Z,17.70
2022-10-22T18:33:44.576Z,17.91
2022-10-22T18:38:51.702Z,20.23
2022-10-22T18:44:00.076Z,20.50
2022-10-22T18:49:02.732Z,18.26
2022-10-22T18:54:21.684Z,18.01
2022-10-22T18:59:27.000Z,20.18
2022-10-22T19:04:36.836Z,20.98
2022-10-22T19:09:41.050Z,20.01
2022-10-22T19:14:43.702Z,17.77
2022-10-22T19:19:46.359Z,18.06
2022-10-22T19:24:49.851Z,20.34
2022-10-22T19:29:52.488Z,20.69
2022-10-22T19:34:55.140Z,18.55
2022-10-22T19:39:57.748Z,18.15
2022-10-22T19:45:00.351Z,20.13
2022-10-22T19:50:03.115Z,19.89
2022-10-22T19:55:05.918Z,17.80
2022-10-22T20:00:09.464Z,19.14
2022-10-22T20:05:12.311Z,20.22
2022-10-22T20:10:15.140Z,19.70
2022-10-22T20:15:18.757Z,18.77
2022-10-22T20:20:26.209Z,20.30
2022-10-22T20:25:29.365Z,20.95
2022-10-22T20:30:32.076Z,19.96
2022-10-22T20:35:36.103Z,17.97
2022-10-22T20:40:38.845Z,19.50
2022-10-22T20:45:41.442Z,20.65
2022-10-22T20:50:44.202Z,21.11
2022-10-22T20:55:48.158Z,20.01
2022-10-22T21:00:51.510Z,19.23
2022-10-22T21:05:54.236Z,20.78
2022-10-22T21:10:56.947Z,20.35
2022-10-22T21:15:59.876Z,18.09
2022-10-22T21:21:05.499Z,18.97
2022-10-22T21:26:08.151Z,20.21
2022-10-22T21:31:18.799Z,20.12
2022-10-22T21:36:23.582Z,18.45
2022-10-22T21:41:26.452Z,20.28
2022-10-22T21:46:29.763Z,21.25
2022-10-22T21:51:35.215Z,19.61
2022-10-22T21:56:38.031Z,18.81
2022-10-22T22:01:41.200Z,20.58
2022-10-22T22:06:43.900Z,20.56
2022-10-22T22:11:46.587Z,18.29
2022-10-22T22:16:49.236Z,18.27
2022-10-22T22:21:52.963Z,20.49
2022-10-22T22:26:55.641Z,20.97
2022-10-22T22:31:58.351Z,18.97
2022-10-22T22:37:01.051Z,18.68
2022-10-22T22:42:04.058Z,20.86
2022-10-22T22:47:06.756Z,20.69
2022-10-22T22:52:09.885Z,18.41
2022-10-22T22:57:14.512Z,18.46
2022-10-22T23:02:17.206Z,20.77
2022-10-22T23:07:19.908Z,20.51
2022-10-22T23:12:22.720Z,18.25
2022-10-22T23:17:25.443Z,18.36
2022-10-22T23:22:28.179Z,20.66
2022-10-22T23:27:30.802Z,20.45
2022-10-22T23:32:33.421Z,18.14
2022-10-22T23:37:36.083Z,18.12
2022-10-22T23:47:46.208Z,21.06
2022-10-22T23:52:48.904Z,19.67
2022-10-22T23:57:51.602Z,18.96
